Time;durP1;ratioP1;P1;durP2;ratioP2;P2;SDS_P1;SDS_P2;PMS_P1;PMS_P2;Temp;Humidity;BMP_temperature;BMP_pressure;BME280_temperature;BME280_humidity;BME280_pressure;Samples;Min_cycle;Max_cycle;Signal;HPM_P1;HPM_P2
2022/01/17 00:01:41;;;;;;;39.88;19.40;;;;;;;;;;5160956;28;20084;-83
2022/01/17 00:04:14;;;;;;;41.53;20.13;;;;;;;;;;5202335;28;20060;-80
2022/01/17 00:06:47;;;;;;;42.10;20.45;;;;;;;;;;5192609;28;20045;-82
2022/01/17 00:09:22;;;;;;;43.17;19.90;;;;;;;;;;5189107;28;20045;-81
2022/01/17 00:11:56;;;;;;;35.67;19.85;;;;;;;;;;5203082;28;20049;-78
2022/01/17 00:14:34;;;;;;;37.63;18.67;;;;;;;;;;5185710;28;20082;-83
2022/01/17 00:19:52;;;;;;;40.28;19.58;;;;;;;;;;5184633;28;21746;-82
2022/01/17 00:22:25;;;;;;;40.53;19.48;;;;;;;;;;5178095;28;20041;-82
2022/01/17 00:24:57;;;;;;;37.28;18.30;;;;;;;;;;5171877;28;20044;-80
2022/01/17 00:27:31;;;;;;;35.72;17.80;;;;;;;;;;5184466;28;20046;-80
2022/01/17 00:30:04;;;;;;;40.75;19.27;;;;;;;;;;5169124;28;20684;-81
2022/01/17 00:32:37;;;;;;;36.05;18.05;;;;;;;;;;5183845;28;20054;-82
2022/01/17 00:35:10;;;;;;;35.33;17.30;;;;;;;;;;5183139;28;21805;-80
2022/01/17 00:37:42;;;;;;;33.97;17.53;;;;;;;;;;5179912;28;20139;-82
2022/01/17 00:40:15;;;;;;;38.35;19.05;;;;;;;;;;5184784;28;20064;-80
2022/01/17 00:42:48;;;;;;;37.87;17.37;;;;;;;;;;5171081;28;20033;-79
2022/01/17 00:45:27;;;;;;;41.72;19.10;;;;;;;;;;5184031;28;20480;-80
2022/01/17 00:48:00;;;;;;;35.85;18.98;;;;;;;;;;5179967;28;20048;-83
2022/01/17 00:50:34;;;;;;;37.88;18.13;;;;;;;;;;5187788;28;20049;-82
2022/01/17 00:53:08;;;;;;;29.80;15.85;;;3.60;99.90;;;;;;5175804;28;20045;-80
2022/01/17 00:55:41;;;;;;;34.75;17.27;;;;;;;;;;5169277;28;20050;-81
2022/01/17 00:58:13;;;;;;;29.60;15.82;;;;;;;;;;5171053;28;20046;-82
2022/01/17 01:00:46;;;;;;;32.10;16.10;;;;;;;;;;5177274;28;20271;-82
2022/01/17 01:03:21;;;;;;;32.00;16.15;;;;;;;;;;5167340;28;20061;-82
2022/01/17 01:05:53;;;;;;;36.20;16.40;;;;;;;;;;5167301;28;20071;-78
2022/01/17 01:08:26;;;;;;;33.58;15.18;;;;;;;;;;5187155;28;20056;-80
2022/01/17 01:10:59;;;;;;;32.58;15.93;;;;;;;;;;5174295;28;20057;-79
2022/01/17 01:13:32;;;;;;;28.23;14.30;;;;;;;;;;5180579;28;20038;-80
2022/01/17 01:19:00;;;;;;;31.80;15.82;;;3.60;99.90;;;;;;5185953;28;20037;-81
2022/01/17 01:21:48;;;;;;;26.60;14.98;;;;;;;;;;5173605;28;22851;-82
2022/01/17 01:30:08;;;;;;;27.80;14.38;;;3.60;99.90;;;;;;5172650;28;20072;-80
2022/01/17 01:32:51;;;;;;;31.75;14.20;;;;;;;;;;5144971;28;20054;-80
2022/01/17 01:35:27;;;;;;;29.88;13.93;;;;;;;;;;5161995;28;20053;-83
2022/01/17 01:38:00;;;;;;;28.58;13.35;;;;;;;;;;5161980;28;20060;-81
2022/01/17 01:40:34;;;;;;;26.83;13.77;;;;;;;;;;5199352;28;20057;-82
2022/01/17 01:43:07;;;;;;;;;;;3.60;99.30;;;;;;5182678;28;20413;-83
2022/01/17 01:45:39;;;;;;;25.45;13.95;;;;;;;;;;5190520;28;19939;-80
2022/01/17 01:48:12;;;;;;;25.00;12.93;;;;;;;;;;5179341;28;20034;-80
2022/01/17 01:50:46;;;;;;;28.05;13.70;;;3.80;99.40;;;;;;5194278;28;20046;-78
2022/01/17 01:53:18;;;;;;;22.50;12.40;;;;;;;;;;5175467;28;20045;-79
2022/01/17 01:55:53;;;;;;;24.08;12.15;;;3.60;98.60;;;;;;5201226;28;20045;-80
2022/01/17 01:58:26;;;;;;;23.40;12.77;;;3.70;98.60;;;;;;5201323;28;20049;-80
2022/01/17 02:01:00;;;;;;;21.80;11.18;;;;;;;;;;5200830;28;20076;-80
2022/01/17 02:03:33;;;;;;;22.95;11.73;;;;;;;;;;5171864;28;20057;-80
2022/01/17 02:06:06;;;;;;;22.73;11.97;;;;;;;;;;5191371;28;20061;-80
2022/01/17 02:08:38;;;;;;;23.10;11.95;;;;;;;;;;5175517;28;20506;-79
2022/01/17 02:11:11;;;;;;;22.95;11.20;;;;;;;;;;5163705;28;20555;-79
2022/01/17 02:13:46;;;;;;;23.73;11.67;;;;;;;;;;5165732;28;20054;-82
2022/01/17 02:16:23;;;;;;;23.02;11.82;;;3.70;98.60;;;;;;5168675;28;20706;-81
2022/01/17 02:18:56;;;;;;;22.13;11.63;;;;;;;;;;5166540;28;20053;-79
2022/01/17 02:21:46;;;;;;;21.58;11.27;;;;;;;;;;5168484;28;20048;-81
2022/01/17 02:24:21;;;;;;;20.98;10.77;;;3.70;98.90;;;;;;5189268;28;20053;-83
2022/01/17 02:26:53;;;;;;;17.77;9.60;;;;;;;;;;5170782;28;20045;-81
2022/01/17 02:29:26;;;;;;;20.10;9.77;;;;;;;;;;5149645;28;20057;-80
2022/01/17 02:31:59;;;;;;;18.92;10.23;;;;;;;;;;5163948;28;20566;-81
2022/01/17 02:34:32;;;;;;;18.92;9.90;;;;;;;;;;5171487;28;20050;-78
2022/01/17 02:37:04;;;;;;;21.17;10.18;;;;;;;;;;5166293;28;20049;-80
2022/01/17 02:39:37;;;;;;;17.20;8.88;;;3.70;98.00;;;;;;5169248;28;20061;-78
2022/01/17 02:42:15;;;;;;;15.25;9.02;;;;;;;;;;5167007;28;20058;-81
2022/01/17 02:44:50;;;;;;;22.35;9.60;;;;;;;;;;5166995;28;20044;-79
2022/01/17 02:47:23;;;;;;;16.67;8.90;;;;;;;;;;5189787;28;20056;-81
2022/01/17 02:49:55;;;;;;;16.08;9.13;;;;;;;;;;5171902;28;20676;-79
2022/01/17 02:52:28;;;;;;;17.70;9.52;;;;;;;;;;5169382;28;21426;-82
2022/01/17 02:55:01;;;;;;;16.23;8.93;;;;;;;;;;5177985;28;20038;-81
2022/01/17 02:57:34;;;;;;;21.33;10.05;;;;;;;;;;5169511;28;20068;-79
2022/01/17 03:00:10;;;;;;;18.73;9.98;;;3.80;98.10;;;;;;5166683;28;20050;-80
2022/01/17 03:02:48;;;;;;;18.35;9.82;;;;;;;;;;5169309;28;20042;-79
2022/01/17 03:05:21;;;;;;;18.75;9.18;;;3.70;98.70;;;;;;5170700;28;20057;-79
2022/01/17 03:07:54;;;;;;;17.25;9.20;;;;;;;;;;5166038;28;20420;-80
2022/01/17 03:10:39;;;;;;;16.17;9.18;;;;;;;;;;5168047;28;20500;-81
2022/01/17 03:13:12;;;;;;;15.48;8.95;;;;;;;;;;5188785;28;20057;-80
2022/01/17 03:15:56;;;;;;;16.63;9.73;;;3.80;99.00;;;;;;5170498;28;20049;-80
2022/01/17 03:18:32;;;;;;;16.10;8.07;;;3.70;99.40;;;;;;5188001;28;20222;-81
2022/01/17 03:21:06;;;;;;;16.25;8.65;;;3.80;99.30;;;;;;5156932;28;20045;-82
2022/01/17 03:23:39;;;;;;;16.88;8.77;;;3.70;99.00;;;;;;5171987;28;20045;-79
2022/01/17 03:26:12;;;;;;;19.67;9.50;;;;;;;;;;5173680;28;20041;-83
2022/01/17 03:28:45;;;;;;;20.90;9.13;;;;;;;;;;5174944;28;20048;-81
2022/01/17 03:31:18;;;;;;;17.52;9.45;;;;;;;;;;5169563;28;20296;-82
2022/01/17 03:33:51;;;;;;;22.50;11.27;;;;;;;;;;5192152;28;20044;-81
2022/01/17 03:36:23;;;;;;;18.98;9.98;;;;;;;;;;5178925;28;20053;-82
2022/01/17 03:38:56;;;;;;;15.10;9.10;;;;;;;;;;5185432;28;20512;-79
2022/01/17 03:41:29;;;;;;;15.55;8.60;;;;;;;;;;5179271;28;20046;-82
2022/01/17 03:44:02;;;;;;;16.42;8.40;;;;;;;;;;5177247;28;20048;-80
2022/01/17 03:46:35;;;;;;;15.55;8.73;;;;;;;;;;5165900;28;20049;-78
2022/01/17 03:49:09;;;;;;;15.43;8.52;;;;;;;;;;5176390;28;20061;-79
2022/01/17 03:51:42;;;;;;;13.88;8.25;;;;;;;;;;5156461;28;20053;-78
2022/01/17 03:54:16;;;;;;;14.40;7.95;;;;;;;;;;5172124;28;20054;-80
2022/01/17 03:56:48;;;;;;;14.40;7.82;;;;;;;;;;5159664;28;20045;-83
2022/01/17 03:59:21;;;;;;;17.13;8.70;;;;;;;;;;5157055;28;20632;-79
2022/01/17 04:01:54;;;;;;;15.55;8.25;;;;;;;;;;5151808;28;20050;-79
2022/01/17 04:04:27;;;;;;;14.70;7.83;;;;;;;;;;5174864;28;20057;-77
2022/01/17 04:06:59;;;;;;;15.93;9.07;;;;;;;;;;5175181;28;20282;-80
2022/01/17 04:09:32;;;;;;;15.30;8.95;;;;;;;;;;5153019;28;20058;-81
2022/01/17 04:12:05;;;;;;;16.05;9.15;;;;;;;;;;5172470;28;20037;-79
2022/01/17 04:14:38;;;;;;;17.80;8.90;;;;;;;;;;5173805;28;20050;-78
2022/01/17 04:17:11;;;;;;;17.48;9.65;;;;;;;;;;5143735;28;20045;-77
2022/01/17 04:19:48;;;;;;;16.13;8.57;;;;;;;;;;5171002;28;20050;-78
2022/01/17 04:22:20;;;;;;;17.25;9.98;;;;;;;;;;5174290;28;20049;-78
2022/01/17 04:24:54;;;;;;;14.02;8.30;;;;;;;;;;5174185;28;20042;-79
2022/01/17 04:27:27;;;;;;;13.70;7.88;;;;;;;;;;5162378;28;20048;-77
2022/01/17 04:30:00;;;;;;;16.23;8.17;;;3.50;99.90;;;;;;5162533;28;20053;-79
2022/01/17 04:32:33;;;;;;;14.50;8.07;;;;;;;;;;5150902;28;20319;-77
2022/01/17 04:35:06;;;;;;;15.63;8.60;;;;;;;;;;5176599;28;20049;-79
2022/01/17 04:37:39;;;;;;;18.77;8.80;;;;;;;;;;5189291;28;20072;-78
2022/01/17 04:40:12;;;;;;;14.90;8.50;;;;;;;;;;5191906;28;20057;-80
2022/01/17 04:42:47;;;;;;;17.77;9.20;;;;;;;;;;5176742;28;20500;-77
2022/01/17 04:45:20;;;;;;;14.82;8.63;;;;;;;;;;5182790;28;20053;-79
2022/01/17 04:47:53;;;;;;;16.75;8.80;;;;;;;;;;5174956;28;20664;-76
2022/01/17 04:50:27;;;;;;;16.38;9.15;;;3.40;99.90;;;;;;5176017;28;20056;-81
2022/01/17 04:53:01;;;;;;;14.70;8.52;;;;;;;;;;5173752;28;20125;-81
2022/01/17 04:55:36;;;;;;;15.23;8.43;;;;;;;;;;5172198;28;20049;-80
2022/01/17 04:58:08;;;;;;;17.08;9.25;;;;;;;;;;5175231;28;20045;-80
2022/01/17 05:00:46;;;;;;;16.17;8.13;;;3.40;99.90;;;;;;5172801;28;20046;-78
2022/01/17 05:03:24;;;;;;;15.75;8.25;;;3.40;99.90;;;;;;5157432;28;20057;-78
2022/01/17 05:05:59;;;;;;;15.40;8.57;;;;;;;;;;5169899;28;20038;-79
2022/01/17 05:08:31;;;;;;;16.08;8.23;;;;;;;;;;5151222;28;20539;-79
2022/01/17 05:11:04;;;;;;;17.05;8.60;;;;;;;;;;5184966;28;20045;-78
2022/01/17 05:13:43;;;;;;;15.88;7.63;;;;;;;;;;5165959;28;20057;-77
2022/01/17 05:16:18;;;;;;;20.77;9.45;;;;;;;;;;5157223;28;20048;-78
2022/01/17 05:21:42;;;;;;;17.63;7.90;;;;;;;;;;5175263;28;20060;-79
2022/01/17 05:24:15;;;;;;;17.17;8.95;;;;;;;;;;5172532;28;20041;-80
2022/01/17 05:26:48;;;;;;;17.10;9.18;;;;;;;;;;5167415;28;20404;-78
2022/01/17 05:29:21;;;;;;;15.18;8.35;;;;;;;;;;5172627;28;20053;-80
2022/01/17 05:31:54;;;;;;;15.10;8.43;;;;;;;;;;5161377;28;20049;-81
2022/01/17 05:34:27;;;;;;;14.85;7.70;;;;;;;;;;5168789;28;20103;-80
2022/01/17 05:36:59;;;;;;;15.02;8.35;;;;;;;;;;5173235;28;20053;-81
2022/01/17 05:39:32;;;;;;;18.55;8.43;;;;;;;;;;5169640;28;20052;-77
2022/01/17 05:42:05;;;;;;;16.63;8.63;;;;;;;;;;5173474;28;20057;-76
2022/01/17 05:44:38;;;;;;;15.00;8.40;;;;;;;;;;5169034;28;20048;-75
2022/01/17 05:47:11;;;;;;;14.90;7.90;;;;;;;;;;5165894;28;20076;-77
2022/01/17 05:49:44;;;;;;;14.82;8.13;;;;;;;;;;5153343;28;20060;-79
2022/01/17 05:52:17;;;;;;;14.83;7.97;;;;;;;;;;5184617;28;20050;-76
2022/01/17 05:54:50;;;;;;;14.15;8.00;;;;;;;;;;5147544;28;20433;-78
2022/01/17 05:57:23;;;;;;;14.98;8.05;;;3.60;99.90;;;;;;5158985;28;20050;-77
2022/01/17 05:59:56;;;;;;;15.95;8.57;;;;;;;;;;5155611;28;20053;-75
2022/01/17 06:02:29;;;;;;;14.60;7.72;;;;;;;;;;5163208;28;20527;-74
2022/01/17 06:05:02;;;;;;;11.93;7.57;;;;;;;;;;5167202;28;20049;-77
2022/01/17 06:07:35;;;;;;;12.80;7.63;;;;;;;;;;5152139;28;20037;-76
2022/01/17 06:10:07;;;;;;;15.23;7.85;;;;;;;;;;5163156;28;20066;-76
2022/01/17 06:12:40;;;;;;;16.13;8.27;;;;;;;;;;5157907;28;20699;-78
2022/01/17 06:15:13;;;;;;;14.57;7.55;;;;;;;;;;5155981;28;20060;-76
2022/01/17 06:17:46;;;;;;;14.77;8.05;;;;;;;;;;5186113;28;20049;-79
2022/01/17 06:20:19;;;;;;;15.93;7.95;;;;;;;;;;5191788;28;20489;-76
2022/01/17 06:22:51;;;;;;;12.80;7.35;;;;;;;;;;5178747;28;20072;-78
2022/01/17 06:25:24;;;;;;;15.27;7.72;;;;;;;;;;5179858;28;20301;-79
2022/01/17 06:27:57;;;;;;;13.88;7.45;;;;;;;;;;5182151;28;20054;-78
2022/01/17 06:30:30;;;;;;;13.00;6.85;;;;;;;;;;5173118;28;20054;-78
2022/01/17 06:33:03;;;;;;;15.55;7.03;;;;;;;;;;5184804;28;20067;-79
2022/01/17 06:35:37;;;;;;;15.73;7.68;;;;;;;;;;5176270;28;20443;-77
2022/01/17 06:38:10;;;;;;;;;;;3.70;99.90;;;;;;5178895;28;20295;-78
2022/01/17 06:40:43;;;;;;;14.70;7.38;;;;;;;;;;5162889;28;19925;-75
2022/01/17 06:43:16;;;;;;;13.55;7.60;;;;;;;;;;5175450;28;20052;-78
2022/01/17 06:45:48;;;;;;;13.77;7.18;;;;;;;;;;5174591;28;20056;-79
2022/01/17 06:48:21;;;;;;;15.00;8.57;;;;;;;;;;5178242;28;20045;-77
2022/01/17 06:50:54;;;;;;;15.52;7.53;;;;;;;;;;5180775;28;20423;-79
2022/01/17 06:53:27;;;;;;;15.93;7.10;;;;;;;;;;5182110;28;20048;-76
2022/01/17 06:56:00;;;;;;;13.13;7.78;;;;;;;;;;5198542;28;20052;-79
2022/01/17 06:58:35;;;;;;;13.30;7.60;;;;;;;;;;5172816;28;20041;-78
2022/01/17 07:01:08;;;;;;;12.93;7.13;;;;;;;;;;5194304;28;20049;-80
2022/01/17 07:03:41;;;;;;;13.68;6.90;;;;;;;;;;5179629;28;20050;-80
2022/01/17 07:06:13;;;;;;;14.40;7.33;;;;;;;;;;5180699;28;20041;-80
2022/01/17 07:08:46;;;;;;;15.25;8.07;;;;;;;;;;5180083;28;20045;-78
2022/01/17 07:11:19;;;;;;;15.27;8.23;;;;;;;;;;5182262;28;20582;-79
2022/01/17 07:13:53;;;;;;;14.63;7.90;;;;;;;;;;5184897;28;20571;-78
2022/01/17 07:16:25;;;;;;;14.23;7.57;;;;;;;;;;5184717;28;20042;-80
2022/01/17 07:18:58;;;;;;;12.93;6.82;;;;;;;;;;5163172;28;20053;-80
2022/01/17 07:21:32;;;;;;;10.85;6.45;;;;;;;;;;5183325;28;20052;-78
2022/01/17 07:24:05;;;;;;;12.38;6.05;;;;;;;;;;5193419;28;20045;-77
2022/01/17 07:26:38;;;;;;;12.27;7.45;;;;;;;;;;5181990;28;20092;-77
2022/01/17 07:29:11;;;;;;;14.13;7.90;;;;;;;;;;5180395;28;20042;-79
2022/01/17 07:31:43;;;;;;;15.27;7.25;;;;;;;;;;5183227;28;20045;-78
2022/01/17 07:34:17;;;;;;;13.45;6.78;;;;;;;;;;5179256;28;20548;-78
2022/01/17 07:36:49;;;;;;;12.05;7.10;;;;;;;;;;5175299;28;20046;-80
2022/01/17 07:39:22;;;;;;;12.07;6.70;;;;;;;;;;5179002;28;20067;-78
2022/01/17 07:41:55;;;;;;;15.65;6.90;;;;;;;;;;5196138;28;20053;-77
2022/01/17 07:44:30;;;;;;;12.80;7.05;;;;;;;;;;5179024;28;20045;-77
2022/01/17 07:47:04;;;;;;;14.43;7.90;;;;;;;;;;5180347;28;20946;-79
2022/01/17 07:49:37;;;;;;;12.13;7.20;;;;;;;;;;5194372;28;20108;-80
2022/01/17 07:52:29;;;;;;;15.32;7.68;;;;;;;;;;5176691;28;20532;-78
2022/01/17 07:55:03;;;;;;;13.40;7.55;;;3.80;99.90;;;;;;5180891;28;20443;-77
2022/01/17 07:57:37;;;;;;;12.55;7.05;;;3.90;99.90;;;;;;5176993;28;20049;-78
2022/01/17 08:00:13;;;;;;;11.68;6.60;;;3.90;99.90;;;;;;5184620;28;20045;-77
2022/01/17 08:02:53;;;;;;;10.48;6.45;;;3.90;99.90;;;;;;5183720;28;20042;-77
2022/01/17 08:05:27;;;;;;;13.38;6.93;;;;;;;;;;5187193;28;20049;-77
2022/01/17 08:08:00;;;;;;;12.63;7.10;;;;;;;;;;5198962;28;20037;-77
2022/01/17 08:10:33;;;;;;;12.57;7.43;;;;;;;;;;5185816;28;20050;-77
2022/01/17 08:13:06;;;;;;;12.25;6.90;;;;;;;;;;5183893;28;20527;-76
2022/01/17 08:15:38;;;;;;;11.80;7.17;;;;;;;;;;5168390;28;20054;-78
2022/01/17 08:18:12;;;;;;;11.60;6.53;;;;;;;;;;5181098;28;20045;-76
2022/01/17 08:20:44;;;;;;;11.60;5.38;;;;;;;;;;5185335;28;20049;-78
2022/01/17 08:23:17;;;;;;;12.38;7.07;;;;;;;;;;5183869;28;20053;-77
2022/01/17 08:25:50;;;;;;;13.63;7.35;;;;;;;;;;5200048;28;20048;-78
2022/01/17 08:28:27;;;;;;;13.40;6.97;;;;;;;;;;5171626;28;20049;-77
2022/01/17 08:30:59;;;;;;;14.20;7.47;;;;;;;;;;5184298;28;20057;-77
2022/01/17 08:33:52;;;;;;;14.02;7.20;;;;;;;;;;5183485;28;20045;-76
2022/01/17 08:36:24;;;;;;;14.07;7.35;;;;;;;;;;5162345;28;20656;-76
2022/01/17 08:38:57;;;;;;;11.75;7.18;;;;;;;;;;5183900;28;20045;-77
2022/01/17 08:41:30;;;;;;;11.02;6.72;;;;;;;;;;5183165;28;20413;-75
2022/01/17 08:44:02;;;;;;;12.48;7.07;;;;;;;;;;5183446;28;20046;-79
2022/01/17 08:46:35;;;;;;;14.80;7.67;;;;;;;;;;5203375;28;20042;-77
2022/01/17 08:49:08;;;;;;;12.20;6.90;;;;;;;;;;5182331;28;20289;-77
2022/01/17 08:51:41;;;;;;;10.33;6.77;;;;;;;;;;5172049;28;20057;-79
2022/01/17 08:54:14;;;;;;;13.02;7.00;;;;;;;;;;5197849;28;20296;-76
2022/01/17 08:56:47;;;;;;;12.50;6.65;;;;;;;;;;5191001;28;20046;-77
2022/01/17 08:59:19;;;;;;;13.80;7.57;;;;;;;;;;5185039;28;20053;-78
2022/01/17 09:01:52;;;;;;;13.55;7.25;;;;;;;;;;5181164;28;20529;-78
2022/01/17 09:04:25;;;;;;;11.70;6.53;;;;;;;;;;5180892;28;20612;-77
2022/01/17 09:06:58;;;;;;;14.60;8.27;;;;;;;;;;5188514;28;20045;-77
2022/01/17 09:09:31;;;;;;;13.68;7.15;;;;;;;;;;5182789;28;20644;-77
2022/01/17 09:12:05;;;;;;;13.65;6.60;;;4.30;99.90;;;;;;5174249;28;20037;-77
2022/01/17 09:14:39;;;;;;;12.57;6.85;;;4.40;99.90;;;;;;5183112;28;20049;-78
2022/01/17 09:17:12;;;;;;;13.35;6.63;;;4.50;99.90;;;;;;5185380;28;20049;-78
2022/01/17 09:19:46;;;;;;;13.40;7.57;;;;;;;;;;5184334;28;20056;-78
2022/01/17 09:22:19;;;;;;;16.60;7.65;;;;;;;;;;5177859;28;20046;-78
2022/01/17 09:24:52;;;;;;;16.40;7.30;;;;;;;;;;5183438;28;20037;-79
2022/01/17 09:27:25;;;;;;;14.57;7.63;;;4.70;99.90;;;;;;5182836;28;20042;-78
2022/01/17 09:29:58;;;;;;;11.40;6.38;;;;;;;;;;5169750;28;20053;-79
2022/01/17 09:32:30;;;;;;;11.93;7.50;;;;;;;;;;5182822;28;20060;-79
2022/01/17 09:35:07;;;;;;;13.80;7.32;;;4.60;99.90;;;;;;5182993;28;20192;-78
2022/01/17 09:37:41;;;;;;;13.73;7.00;;;4.70;99.90;;;;;;5183032;28;20060;-78
2022/01/17 09:40:14;;;;;;;9.77;6.72;;;;;;;;;;5185043;28;20046;-78
2022/01/17 09:42:47;;;;;;;18.55;6.90;;;;;;;;;;5184229;28;20053;-79
2022/01/17 09:45:22;;;;;;;13.47;6.83;;;4.70;99.90;;;;;;5165417;28;20536;-77
2022/01/17 09:47:55;;;;;;;11.98;7.22;;;;;;;;;;5182703;28;20285;-78
2022/01/17 09:50:34;;;;;;;10.65;6.65;;;;;;;;;;5198613;28;20057;-77
2022/01/17 09:53:07;;;;;;;12.52;6.97;;;;;;;;;;5177297;28;20053;-79
2022/01/17 09:55:39;;;;;;;13.80;7.60;;;;;;;;;;5183162;28;20045;-77
2022/01/17 09:58:13;;;;;;;14.55;6.65;;;4.80;99.90;;;;;;5200842;28;20050;-80
2022/01/17 10:00:46;;;;;;;12.13;6.82;;;;;;;;;;5182627;28;20505;-77
2022/01/17 10:03:21;;;;;;;15.25;7.28;;;;;;;;;;5196810;28;20049;-79
2022/01/17 10:05:54;;;;;;;11.40;7.00;;;;;;;;;;5183988;28;20045;-79
2022/01/17 10:08:27;;;;;;;13.98;6.90;;;;;;;;;;5183632;28;20046;-78
2022/01/17 10:11:01;;;;;;;18.42;7.53;;;;;;;;;;5175549;28;20042;-78
2022/01/17 10:13:39;;;;;;;12.20;7.13;;;4.80;99.90;;;;;;5187330;28;20041;-76
2022/01/17 10:16:13;;;;;;;13.23;7.25;;;;;;;;;;5184444;28;20053;-78
2022/01/17 10:18:56;;;;;;;12.80;6.50;;;4.90;99.90;;;;;;5185306;28;20064;-78
2022/01/17 10:21:50;;;;;;;9.85;6.38;;;4.80;99.90;;;;;;5160276;28;20070;-78
2022/01/17 10:35:33;;;;;;;12.13;6.72;;;4.90;99.90;;;;;;5181792;28;20045;-77
2022/01/17 10:38:18;;;;;;;11.18;6.53;;;4.90;99.90;;;;;;5168459;28;20057;-79
2022/01/17 10:40:59;;;;;;;11.88;6.65;;;4.90;99.90;;;;;;5167802;28;20564;-76
2022/01/17 10:43:38;;;;;;;10.75;6.22;;;4.90;99.90;;;;;;5183860;28;20053;-77
2022/01/17 10:46:13;;;;;;;13.23;7.03;;;4.90;99.90;;;;;;5156286;28;20056;-79
2022/01/17 10:48:51;;;;;;;11.63;6.57;;;4.90;99.90;;;;;;5188321;28;20045;-79
2022/01/17 10:51:29;;;;;;;11.70;6.32;;;4.90;99.90;;;;;;5182330;28;20730;-79
2022/01/17 10:54:12;;;;;;;9.85;6.15;;;4.90;99.90;;;;;;5195473;28;20045;-78
2022/01/17 10:56:56;;;;;;;11.18;6.35;;;4.90;99.90;;;;;;5184117;28;20413;-78
2022/01/17 10:59:31;;;;;;;9.80;5.90;;;4.90;99.90;;;;;;5166641;28;20053;-79
2022/01/17 11:02:04;;;;;;;10.82;5.72;;;;;;;;;;5182326;28;20045;-80
2022/01/17 11:04:38;;;;;;;14.65;5.70;;;4.90;99.90;;;;;;5185506;28;20058;-77
2022/01/17 11:07:12;;;;;;;10.30;5.95;;;5.00;99.90;;;;;;5166809;28;20037;-78
2022/01/17 11:09:49;;;;;;;11.27;5.60;;;5.00;99.90;;;;;;5182558;28;20053;-78
2022/01/17 11:12:28;;;;;;;10.30;5.47;;;5.00;99.90;;;;;;5200101;28;20040;-77
2022/01/17 11:15:01;;;;;;;10.32;5.70;;;;;;;;;;5180394;28;20440;-77
2022/01/17 11:17:37;;;;;;;9.90;5.63;;;;;;;;;;5184509;28;20058;-78
2022/01/17 11:20:10;;;;;;;9.30;5.70;;;;;;;;;;5172148;28;20045;-78
2022/01/17 11:22:45;;;;;;;10.15;5.78;;;5.00;99.90;;;;;;5197892;28;20662;-77
2022/01/17 11:25:33;;;;;;;8.20;5.35;;;5.10;99.90;;;;;;5171052;28;20942;-77
2022/01/17 11:28:06;;;;;;;11.93;5.65;;;5.10;99.90;;;;;;5167190;28;20046;-78
2022/01/17 11:30:39;;;;;;;10.95;5.88;;;5.20;99.90;;;;;;5164430;28;20046;-77
2022/01/17 11:33:12;;;;;;;9.95;5.45;;;;;;;;;;5183087;28;20041;-78
2022/01/17 11:35:51;;;;;;;9.70;4.93;;;;;;;;;;5185791;28;20060;-77
2022/01/17 11:38:29;;;;;;;7.68;4.95;;;5.20;99.90;;;;;;5202520;28;20068;-78
2022/01/17 11:41:04;;;;;;;9.30;5.22;;;5.20;99.60;;;;;;5181351;28;20060;-78
2022/01/17 11:43:37;;;;;;;8.45;5.50;;;5.30;99.10;;;;;;5174873;28;20056;-77
2022/01/17 11:46:19;;;;;;;10.30;5.20;;;5.30;99.40;;;;;;5182326;28;20049;-78
2022/01/17 11:49:07;;;;;;;11.60;5.85;;;5.30;99.00;;;;;;5183227;28;20045;-77
2022/01/17 11:51:46;;;;;;;7.93;4.97;;;5.30;99.10;;;;;;5183988;28;20133;-77
2022/01/17 11:54:20;;;;;;;12.70;5.32;;;5.30;99.00;;;;;;5156408;28;20046;-79
2022/01/17 11:56:59;;;;;;;8.75;5.30;;;5.30;98.50;;;;;;5181888;28;20045;-79
2022/01/17 11:59:50;;;;;;;11.73;5.57;;;5.30;98.60;;;;;;5181028;28;20054;-77
2022/01/17 12:02:30;;;;;;;11.23;5.90;;;5.40;98.40;;;;;;5179979;28;20057;-78
2022/01/17 12:05:06;;;;;;;11.13;6.28;;;5.50;97.80;;;;;;5197561;28;22327;-79
2022/01/17 12:07:59;;;;;;;12.40;6.10;;;5.50;97.50;;;;;;5173895;28;20696;-78
2022/01/17 12:10:41;;;;;;;9.52;5.30;;;5.60;96.90;;;;;;5182124;28;20060;-78
2022/01/17 12:13:19;;;;;;;11.43;6.25;;;;;;;;;;5157404;28;20047;-76
2022/01/17 12:15:58;;;;;;;10.25;5.38;;;5.60;96.60;;;;;;5153244;28;20481;-79
2022/01/17 12:18:36;;;;;;;10.75;5.43;;;5.60;96.50;;;;;;5155249;28;20041;-77
2022/01/17 12:21:29;;;;;;;11.70;5.60;;;5.60;96.60;;;;;;5155977;28;20052;-77
2022/01/17 12:24:17;;;;;;;11.45;5.35;;;5.60;96.50;;;;;;5169041;28;20049;-76
2022/01/17 12:27:01;;;;;;;10.02;5.15;;;5.60;96.20;;;;;;5174568;28;20057;-76
2022/01/17 12:29:54;;;;;;;10.02;5.22;;;5.50;95.90;;;;;;5150548;28;20065;-76
2022/01/17 12:32:29;;;;;;;8.77;5.53;;;;;;;;;;5115717;28;20050;-78
2022/01/17 12:35:05;;;;;;;13.02;6.88;;;5.50;95.70;;;;;;5152946;28;21346;-78
2022/01/17 12:37:49;;;;;;;9.55;5.38;;;5.50;95.80;;;;;;5168338;28;20050;-79
2022/01/17 12:40:36;;;;;;;12.73;6.80;;;5.50;95.80;;;;;;5166101;28;20512;-77
2022/01/17 12:43:14;;;;;;;13.38;6.03;;;5.50;95.70;;;;;;5168623;28;20513;-77
2022/01/17 12:45:59;;;;;;;10.80;5.65;;;5.50;95.50;;;;;;5168663;28;20053;-76
2022/01/17 12:48:35;;;;;;;11.02;5.85;;;5.50;95.30;;;;;;5178770;28;20045;-79
2022/01/17 12:51:08;;;;;;;10.20;5.57;;;5.50;95.30;;;;;;5167022;28;20045;-77
2022/01/17 12:53:49;;;;;;;12.38;6.07;;;5.50;95.10;;;;;;5146410;28;20054;-77
2022/01/17 12:56:22;;;;;;;11.10;6.40;;;;;;;;;;5139775;28;20425;-76
2022/01/17 12:58:59;;;;;;;11.57;5.95;;;5.50;94.80;;;;;;5168319;28;20050;-77
2022/01/17 13:01:32;;;;;;;11.95;6.47;;;;;;;;;;5137233;28;20052;-75
2022/01/17 13:04:08;;;;;;;9.82;5.45;;;;;;;;;;5140674;28;20068;-76
2022/01/17 13:06:42;;;;;;;10.48;5.40;;;5.60;95.10;;;;;;5169149;28;20054;-77
2022/01/17 13:09:24;;;;;;;10.05;6.07;;;5.60;95.00;;;;;;5157467;28;20041;-79
2022/01/17 13:11:59;;;;;;;9.45;5.63;;;;;;;;;;5165621;28;20050;-79
2022/01/17 13:14:32;;;;;;;10.95;5.10;;;5.60;94.40;;;;;;5181734;28;20049;-77
2022/01/17 13:17:09;;;;;;;9.40;5.65;;;5.60;94.20;;;;;;5172500;28;20056;-77
2022/01/17 13:19:42;;;;;;;12.48;6.20;;;;;;;;;;5175722;28;20068;-79
2022/01/17 13:22:17;;;;;;;11.35;5.45;;;5.50;94.30;;;;;;5166995;28;20046;-78
2022/01/17 13:25:02;;;;;;;9.40;5.13;;;;;;;;;;5174807;28;20039;-79
2022/01/17 13:27:37;;;;;;;15.10;5.50;;;5.50;94.30;;;;;;5156780;28;20691;-75
2022/01/17 13:30:12;;;;;;;10.73;5.22;;;5.60;94.40;;;;;;5173851;28;20042;-77
2022/01/17 13:32:47;;;;;;;7.78;4.80;;;5.60;94.30;;;;;;5171875;28;20664;-79
2022/01/17 13:35:22;;;;;;;11.50;5.22;;;;;;;;;;5179461;28;20050;-77
2022/01/17 13:38:19;;;;;;;12.77;4.82;;;5.60;93.60;;;;;;5159559;28;20552;-78
2022/01/17 13:41:02;;;;;;;8.77;5.03;;;5.50;93.80;;;;;;5153373;28;20053;-76
2022/01/17 13:43:35;;;;;;;7.53;4.47;;;;;;;;;;5164650;28;20053;-78
2022/01/17 13:46:08;;;;;;;8.82;5.00;;;;;;;;;;5160154;28;20061;-80
2022/01/17 13:48:41;;;;;;;8.82;4.35;;;;;;;;;;5173873;28;20057;-77
2022/01/17 13:51:14;;;;;;;8.27;4.55;;;;;;;;;;5170165;28;20041;-79
2022/01/17 13:53:46;;;;;;;9.10;4.22;;;;;;;;;;5189331;28;20042;-78
2022/01/17 13:56:19;;;;;;;10.18;4.68;;;;;;;;;;5175286;28;20045;-76
2022/01/17 13:58:56;;;;;;;5.90;3.83;;;5.50;93.50;;;;;;5169004;28;20187;-79
2022/01/17 14:01:36;;;;;;;7.68;3.90;;;5.50;93.20;;;;;;5168555;28;20568;-80
2022/01/17 14:04:22;;;;;;;8.25;4.15;;;5.50;93.10;;;;;;5164158;28;20075;-79
2022/01/17 14:06:55;;;;;;;6.72;3.58;;;;;;;;;;5167585;28;20037;-79
2022/01/17 14:09:33;;;;;;;7.22;3.92;;;5.50;93.30;;;;;;5170275;28;20053;-78
2022/01/17 14:12:10;;;;;;;5.63;3.40;;;5.50;93.30;;;;;;5174217;28;20050;-77
2022/01/17 14:14:52;;;;;;;5.03;3.10;;;5.40;93.40;;;;;;5168271;28;20061;-76
2022/01/17 14:17:29;;;;;;;8.73;3.55;;;5.40;93.20;;;;;;5145453;28;20105;-77
2022/01/17 14:20:10;;;;;;;5.00;3.33;;;5.40;93.10;;;;;;5137279;28;20049;-78
2022/01/17 14:22:46;;;;;;;6.72;4.15;;;5.50;93.00;;;;;;5163781;28;20066;-76
2022/01/17 14:25:22;;;;;;;6.13;3.33;;;5.40;92.60;;;;;;5161696;28;20057;-77
2022/01/17 14:27:59;;;;;;;5.57;3.42;;;5.40;92.30;;;;;;5164633;28;20045;-77
2022/01/17 14:30:37;;;;;;;8.00;3.85;;;5.40;92.20;;;;;;5173140;28;20057;-78
2022/01/17 14:33:21;;;;;;;7.18;3.92;;;5.40;92.00;;;;;;5157137;28;20431;-77
2022/01/17 14:36:13;;;;;;;5.78;3.35;;;5.40;92.00;;;;;;5160582;28;20042;-77
2022/01/17 14:38:54;;;;;;;7.13;3.53;;;5.40;92.00;;;;;;5183520;28;20531;-78
2022/01/17 14:44:18;;;;;;;6.60;3.85;;;5.30;91.70;;;;;;5148327;28;20061;-76
2022/01/17 14:46:59;;;;;;;10.02;3.90;;;5.30;91.80;;;;;;5127594;28;20050;-79
2022/01/17 14:49:41;;;;;;;5.95;3.10;;;5.30;91.80;;;;;;5149390;28;20049;-78
2022/01/17 14:52:19;;;;;;;5.47;3.22;;;5.30;92.20;;;;;;5182704;28;20045;-78
2022/01/17 14:55:04;;;;;;;6.80;3.80;;;5.30;92.10;;;;;;5166999;28;20045;-76
2022/01/17 15:00:36;;;;;;;;;;;5.30;92.50;;;;;;5131213;28;20046;-78
2022/01/17 15:03:15;;;;;;;7.32;3.35;;;;;;;;;;5158049;28;19936;-76
2022/01/17 15:05:48;;;;;;;5.68;3.30;;;;;;;;;;5159629;28;20762;-77
2022/01/17 15:08:21;;;;;;;5.95;3.17;;;;;;;;;;5168531;28;20557;-77